Time;durP1;ratioP1;P1;durP2;ratioP2;P2;SDS_P1;SDS_P2;PMS_P1;PMS_P2;Temp;Humidity;BMP_temperature;BMP_pressure;BME280_temperature;BME280_humidity;BME280_pressure;Samples;Min_cycle;Max_cycle;Signal;HPM_P1;HPM_P2
2023/09/30 00:01:11;;;;;;;38.70;19.97;;;;;;;13.43;77.80;99942.44;4845870;29;20080;-89
2023/09/30 00:04:29;;;;;;;35.55;19.55;;;;;;;13.96;77.62;100035.75;4815815;29;20468;-93
2023/09/30 00:06:58;;;;;;;47.42;20.80;;;;;;;13.93;77.96;100044.63;4844928;29;20528;-91
2023/09/30 00:09:40;;;;;;;40.28;20.05;;;;;;;13.33;77.82;99946.28;4843936;29;20069;-90
2023/09/30 00:12:30;;;;;;;39.20;19.23;;;;;;;13.90;77.85;100037.03;4831462;29;20061;-90
2023/09/30 00:14:56;;;;;;;51.30;20.05;;;;;;;13.63;77.91;100005.88;4863165;29;20045;-92
2023/09/30 00:20:34;;;;;;;41.17;19.35;;;;;;;13.22;78.07;99942.16;4843100;29;20485;-92
2023/09/30 00:23:57;;;;;;;36.63;19.95;;;;;;;13.82;78.03;100032.31;4842095;29;20046;-92
2023/09/30 00:27:22;;;;;;;39.53;19.40;;;;;;;13.80;77.92;100029.06;4827194;29;20450;-90
2023/09/30 00:33:06;;;;;;;46.45;18.45;;;;;;;13.52;78.04;99998.25;4808430;29;20097;-90
2023/09/30 00:35:36;;;;;;;40.63;19.35;;;;;;;13.13;78.20;99940.19;4817045;29;20062;-89
2023/09/30 00:38:02;;;;;;;39.63;19.70;;;;;;;13.48;78.30;99992.56;4798604;29;20090;-88
2023/09/30 00:41:17;;;;;;;40.33;19.80;;;;;;;13.73;78.18;100021.28;4786560;30;20120;-88
2023/09/30 00:44:00;;;;;;;46.50;20.58;;;;;;;13.67;78.07;100022.53;4788100;29;20048;-89
2023/09/30 00:46:35;;;;;;;40.85;19.70;;;;;;;13.68;78.48;100020.63;4786794;30;20163;-91
2023/09/30 00:49:02;;;;;;;35.00;19.60;;;;;;;13.33;78.19;99971.81;4785396;29;20091;-90
2023/09/30 00:51:34;;;;;;;46.10;19.92;;;;;;;13.49;78.54;99996.13;4772763;30;20059;-87
2023/09/30 00:54:01;;;;;;;41.00;21.75;;;;;;;13.29;78.50;99972.75;4787569;29;20062;-90
2023/09/30 00:57:00;;;;;;;47.47;20.98;;;;;;;13.22;78.73;99969.63;4794831;29;20555;-90
2023/09/30 00:59:51;;;;;;;41.97;20.90;;;;;;;13.53;79.05;100013.59;4861887;29;20085;-90
2023/09/30 01:02:23;;;;;;;55.17;21.15;;;;;;;12.92;79.19;99922.63;4831318;29;20041;-91
2023/09/30 01:05:13;;;;;;;44.53;20.58;;;;;;;13.49;79.29;100018.91;4831077;29;20058;-91
2023/09/30 01:07:46;;;;;;;40.95;20.00;;;;;;;13.26;79.20;99981.63;4824287;29;20050;-91
2023/09/30 01:10:38;;;;;;;52.20;21.52;;;;;;;13.49;79.40;100013.41;4844584;29;20053;-89
2023/09/30 01:13:59;;;;;;;37.88;20.05;;;;;;;13.54;78.93;100006.97;4834598;29;20069;-91
2023/09/30 01:16:25;;;;;;;48.97;21.48;;;;;;;13.29;78.52;99970.00;4863438;29;20084;-92
2023/09/30 01:18:52;;;;;;;56.17;21.77;;;;;;;13.56;78.48;100018.44;4832406;29;20146;-91
2023/09/30 01:21:34;;;;;;;58.22;20.95;;;;;;;12.89;78.49;99921.31;4839823;29;20050;-91
2023/09/30 01:24:01;;;;;;;44.63;20.90;;;;;;;13.14;78.63;99961.03;4859410;29;20041;-88
2023/09/30 01:26:34;;;;;;;48.13;20.52;;;;;;;13.27;78.52;99981.28;4850675;29;20040;-89
2023/09/30 01:29:00;;;;;;;44.42;20.38;;;;;;;13.07;78.68;99962.56;4865512;29;20049;-90
2023/09/30 01:31:26;;;;;;;45.45;20.52;;;;;;;13.18;79.04;99980.44;4866063;29;20033;-90
2023/09/30 01:34:49;;;;;;;47.03;21.70;;;;;;;13.28;79.58;100002.16;4878867;29;20053;-88
2023/09/30 01:37:16;;;;;;;53.33;20.83;;;;;;;13.23;79.50;99993.19;4881428;29;20459;-91
2023/09/30 01:39:44;;;;;;;44.75;21.02;;;;;;;13.22;79.26;99997.88;4897726;29;20056;-90
2023/09/30 01:43:04;;;;;;;49.47;21.70;;;;;;;13.31;79.25;100012.50;4899749;29;20044;-87
2023/09/30 01:45:36;;;;;;;43.80;20.52;;;;;;;12.68;79.27;99910.06;4881529;29;20049;-91
2023/09/30 01:48:12;;;;;;;36.47;19.85;;;;;;;12.97;79.36;99960.91;4868253;29;20040;-91
2023/09/30 01:50:39;;;;;;;41.95;20.42;;;;;;;12.96;79.23;99951.06;4883512;29;20048;-88
2023/09/30 01:53:11;;;;;;;35.67;19.63;;;;;;;12.94;79.25;99954.09;4899186;29;20048;-91
2023/09/30 01:55:37;;;;;;;40.80;20.10;;;;;;;13.21;79.68;100009.16;4899458;29;20049;-88
2023/09/30 01:58:14;;;;;;;41.63;20.33;;;;;;;12.67;79.98;99921.31;4884798;29;20180;-88
2023/09/30 02:00:40;;;;;;;43.85;20.55;;;;;;;12.98;80.08;99984.50;4900107;29;20055;-88
2023/09/30 02:03:37;;;;;;;39.33;19.98;;;;;;;12.40;80.21;99890.16;4901374;29;20089;-90
2023/09/30 02:06:07;;;;;;;49.15;20.40;;;;;;;13.09;80.16;100010.56;4875732;29;20483;-91
2023/09/30 02:08:36;;;;;;;36.83;20.33;;;;;;;12.83;80.00;99962.91;4881259;29;20049;-87
2023/09/30 02:11:13;;;;;;;45.53;20.95;;;;;;;13.08;79.99;100002.66;4899306;29;20105;-93
2023/09/30 02:13:53;;;;;;;48.28;21.02;;;;;;;12.96;79.61;99983.19;4886454;29;20040;-91
2023/09/30 02:16:45;;;;;;;43.75;20.80;;;;;;;13.06;79.75;100005.69;4901361;29;20037;-88
2023/09/30 02:19:19;;;;;;;41.42;20.58;;;;;;;13.03;79.82;99986.28;4901351;29;20044;-89
2023/09/30 02:21:59;;;;;;;49.63;20.65;;;;;;;13.17;79.87;100006.25;4885038;29;20467;-91
2023/09/30 02:24:40;;;;;;;36.67;19.88;;;;;;;12.63;79.70;99899.19;4909665;29;20041;-88
2023/09/30 02:27:31;;;;;;;41.20;19.60;;;;;;;13.33;79.46;99991.03;4908122;29;20040;-89
2023/09/30 02:29:57;;;;;;;45.67;20.00;;;;;;;12.96;79.28;99931.03;4911558;29;20049;-89
2023/09/30 02:32:23;;;;;;;38.10;19.00;;;;;;;13.15;79.00;99964.59;4891623;29;20044;-85
2023/09/30 02:35:16;;;;;;;37.75;18.30;;;;;;;13.38;78.95;99984.59;4886350;29;20056;-88
2023/09/30 02:38:07;;;;;;;33.60;18.48;;;;;;;13.44;78.78;99993.50;4824865;29;20147;-92
2023/09/30 02:40:45;;;;;;;;;;;;;;;;;;;;;
2023/09/30 02:43:16;;;;;;;34.85;18.50;;;;;;;13.04;78.62;99931.06;4828610;29;20088;-88
2023/09/30 02:45:43;;;;;;;39.78;19.27;;;;;;;13.01;78.12;99915.22;4842332;29;20079;-89
2023/09/30 02:48:10;;;;;;;41.42;17.98;;;;;;;13.04;77.74;99909.13;4804715;29;20061;-91
2023/09/30 02:50:45;;;;;;;46.78;19.13;;;;;;;13.28;77.72;99955.47;4795947;29;20046;-92
2023/09/30 02:53:13;;;;;;;37.00;19.08;;;;;;;13.13;77.68;99933.88;4810130;29;20042;-92
2023/09/30 02:55:40;;;;;;;42.95;19.05;;;;;;;12.90;77.75;99909.22;4824339;29;20081;-90
2023/09/30 02:58:35;;;;;;;38.90;18.75;;;;;;;13.45;77.51;99984.16;4809294;29;20129;-92
2023/09/30 03:01:01;;;;;;;32.40;18.85;;;;;;;13.10;77.60;99929.00;4824188;23;20091;-93
2023/09/30 03:03:30;;;;;;;42.35;19.75;;;;;;;13.40;77.85;99980.41;4887441;29;20115;-92
2023/09/30 03:06:12;;;;;;;32.22;18.98;;;;;;;13.40;77.52;99979.59;4872460;29;20040;-92
2023/09/30 03:08:41;;;;;;;35.05;19.15;;;;;;;13.26;77.34;99965.97;4920724;29;20032;-91
2023/09/30 03:11:13;;;;;;;37.30;19.65;;;;;;;13.12;77.07;99962.47;4931254;29;20078;-92
2023/09/30 03:13:42;;;;;;;32.92;19.63;;;;;;;12.95;76.69;99952.19;4879843;29;20059;-92
2023/09/30 03:16:18;;;;;;;38.05;18.63;;;;;;;12.92;76.71;99955.56;4922681;29;20064;-91
2023/09/30 03:18:48;;;;;;;56.67;18.90;;;;;;;12.68;76.74;99928.41;4915879;29;20044;-90
2023/09/30 03:21:31;;;;;;;45.22;18.73;;;;;;;12.32;77.05;99877.19;4903370;29;20052;-90
2023/09/30 03:24:23;;;;;;;46.85;20.30;;;;;;;12.95;77.36;99976.88;4882261;29;20049;-90
2023/09/30 03:27:02;;;;;;;41.67;20.10;;;;;;;12.45;77.45;99895.53;4871171;29;20362;-87
2023/09/30 03:29:53;;;;;;;45.20;19.95;;;;;;;13.00;77.54;99968.50;4889030;29;20051;-90
2023/09/30 03:32:26;;;;;;;46.65;20.67;;;;;;;12.94;77.57;99978.78;4870897;29;20128;-88
2023/09/30 03:35:17;;;;;;;46.67;20.27;;;;;;;12.90;77.97;99975.06;4885131;29;20044;-90
2023/09/30 03:37:44;;;;;;;42.20;20.40;;;;;;;12.26;78.44;99861.19;4885140;29;20076;-89
2023/09/30 03:40:14;;;;;;;38.83;19.92;;;;;;;12.94;78.36;99980.72;4880041;29;20112;-93
2023/09/30 03:42:44;;;;;;;35.22;19.58;;;;;;;12.81;78.26;99951.44;4863264;29;20036;-90
2023/09/30 03:45:12;;;;;;;33.08;18.75;;;;;;;12.54;78.19;99897.50;4872141;29;20139;-89
2023/09/30 03:47:57;;;;;;;28.98;17.80;;;;;;;13.08;78.63;99976.00;4903044;29;20578;-92
2023/09/30 03:50:26;;;;;;;42.30;18.83;;;;;;;12.89;78.60;99951.50;4886708;29;20072;-88
2023/09/30 03:53:07;;;;;;;33.72;17.85;;;;;;;12.64;79.17;99897.25;4901417;29;20055;-88
2023/09/30 03:55:51;;;;;;;37.92;19.13;;;;;;;13.15;79.49;99976.38;4886095;29;20498;-89
2023/09/30 03:58:18;;;;;;;31.42;18.27;;;;;;;13.02;79.45;99946.25;4884689;29;20051;-90
2023/09/30 04:00:45;;;;;;;30.13;17.63;;;;;;;12.85;79.13;99903.88;4890863;29;20067;-89
2023/09/30 04:03:39;;;;;;;33.72;18.92;;;;;;;13.37;79.05;99971.97;4922693;29;20044;-92
2023/09/30 04:06:38;;;;;;;35.70;17.75;;;;;;;13.15;79.10;99935.19;4887715;29;20052;-91
2023/09/30 04:12:01;;;;;;;31.58;18.40;;;;;;;13.24;79.08;99929.75;4922750;29;20056;-93
2023/09/30 04:14:33;;;;;;;34.78;19.23;;;;;;;13.13;78.79;99906.44;4921069;29;20036;-93
2023/09/30 04:16:59;;;;;;;41.67;18.23;;;;;;;13.33;78.55;99927.88;4923485;29;20048;-90
2023/09/30 04:19:34;;;;;;;38.00;19.08;;;;;;;13.19;78.32;99904.38;4905184;29;20040;-91
2023/09/30 04:22:04;;;;;;;58.80;19.48;;;;;;;13.16;78.16;99894.81;4919196;29;20040;-92
2023/09/30 04:24:32;;;;;;;40.95;19.17;;;;;;;13.55;78.36;99945.41;4920388;23;20459;-88
2023/09/30 04:27:08;;;;;;;28.75;18.35;;;;;;;13.66;78.55;99954.19;4895441;29;20056;-92
2023/09/30 04:29:34;;;;;;;32.78;18.98;;;;;;;13.39;78.32;99909.31;4879088;29;20104;-92
2023/09/30 04:32:52;;;;;;;29.97;18.17;;;;;;;13.86;78.60;99970.88;4949358;23;20083;-92
2023/09/30 04:35:45;;;;;;;30.73;18.30;;;;;;;13.85;78.84;99966.53;4894758;29;20119;-93
2023/09/30 04:38:14;;;;;;;30.30;17.73;;;;;;;13.65;78.71;99917.66;4891204;29;20040;-92
2023/09/30 04:41:46;;;;;;;35.20;18.38;;;;;;;14.03;78.56;99966.56;4903533;29;20126;-93
2023/09/30 04:45:24;;;;;;;33.03;17.52;;;;;;;14.05;78.71;99967.88;4912417;29;20052;-88
2023/09/30 04:47:50;;;;;;;33.88;17.80;;;;;;;13.91;78.68;99933.38;4897443;29;20058;-89
2023/09/30 04:50:22;;;;;;;32.17;19.70;;;;;;;13.98;78.69;99942.00;4894135;29;20064;-92
2023/09/30 04:53:17;;;;;;;33.45;19.48;;;;;;;14.26;78.27;99970.00;4910587;29;20307;-92
2023/09/30 04:56:05;;;;;;;45.10;19.15;;;;;;;14.27;78.63;99971.63;4914816;23;20131;-92
2023/09/30 04:58:48;;;;;;;31.88;18.55;;;;;;;14.07;78.29;99940.88;4874912;29;20478;-92
2023/09/30 05:01:29;;;;;;;46.30;20.35;;;;;;;14.12;78.37;99941.84;4890666;29;20116;-91
2023/09/30 05:05:06;;;;;;;33.97;18.63;;;;;;;14.39;78.15;99974.56;4876432;29;20072;-88
2023/09/30 05:08:23;;;;;;;29.02;17.58;;;;;;;14.46;77.84;99968.56;4890594;29;20563;-91
2023/09/30 05:11:55;;;;;;;32.28;17.92;;;;;;;14.53;77.92;99979.94;4891266;29;20056;-92
2023/09/30 05:15:29;;;;;;;32.15;16.63;;;;;;;14.55;77.34;99975.72;4891451;29;20036;-91
2023/09/30 05:18:58;;;;;;;31.42;18.23;;;;;;;14.64;77.26;99978.50;4862626;29;20117;-90
2023/09/30 05:21:44;;;;;;;34.38;16.98;;;;;;;14.66;77.06;99964.41;4887726;29;20113;-92
2023/09/30 05:24:23;;;;;;;32.95;18.05;;;;;;;14.54;76.77;99937.56;4874598;29;20045;-90
2023/09/30 05:26:50;;;;;;;31.92;16.73;;;;;;;14.26;76.80;99882.81;4892676;23;20044;-92
2023/09/30 05:29:43;;;;;;;32.60;17.33;;;;;;;14.39;76.45;99888.47;4896195;29;20032;-92
2023/09/30 05:32:09;;;;;;;28.33;17.13;;;;;;;14.73;76.42;99927.00;4908536;29;20044;-90
2023/09/30 05:34:39;;;;;;;36.23;17.10;;;;;;;14.70;75.79;99916.66;4910763;29;20036;-91
2023/09/30 05:37:08;;;;;;;30.13;16.15;;;;;;;14.90;75.85;99931.69;4896442;29;20046;-92
2023/09/30 05:39:40;;;;;;;30.58;17.08;;;;;;;14.82;75.74;99906.91;4897076;29;20107;-92
2023/09/30 05:42:06;;;;;;;29.25;16.92;;;;;;;15.01;75.61;99924.69;4907927;29;20672;-91
2023/09/30 05:44:45;;;;;;;32.43;17.70;;;;;;;15.08;75.22;99928.88;4877096;29;20035;-92
2023/09/30 05:47:37;;;;;;;27.75;16.15;;;;;;;15.40;74.60;99957.81;4894670;23;20343;-91
2023/09/30 05:50:07;;;;;;;33.42;16.70;;;;;;;15.34;74.43;99943.38;4889860;29;20079;-92
2023/09/30 05:52:39;;;;;;;30.92;15.82;;;;;;;15.08;74.16;99884.84;4893436;29;20107;-91
2023/09/30 05:55:30;;;;;;;27.63;16.73;;;;;;;15.64;73.72;99955.25;4907949;29;20107;-91
2023/09/30 05:58:14;;;;;;;28.80;16.95;;;;;;;15.73;73.55;99956.06;4893241;29;20056;-90
2023/09/30 06:04:41;;;;;;;35.13;16.13;;;;;;;15.96;72.82;99947.53;4942261;29;20063;-89
2023/09/30 06:07:33;;;;;;;29.23;16.42;;;;;;;15.87;72.41;99921.94;4909694;29;20040;-89
2023/09/30 06:10:05;;;;;;;28.63;16.15;;;;;;;15.71;72.57;99875.66;4918599;29;20043;-87
2023/09/30 06:12:31;;;;;;;35.35;19.33;;;;;;;16.18;72.10;99940.88;4926337;29;20048;-91
2023/09/30 06:15:21;;;;;;;48.20;19.23;;;;;;;15.71;71.74;99861.06;4930255;29;20070;-88
2023/09/30 06:18:41;;;;;;;41.10;18.20;;;;;;;16.39;71.03;99943.63;4917403;29;20083;-89
2023/09/30 06:21:52;;;;;;;24.75;16.45;;;;;;;16.45;70.38;99939.53;4902599;29;20051;-90
2023/09/30 06:24:43;;;;;;;47.50;17.30;;;;;;;16.21;69.93;99887.78;4871478;29;20113;-88
2023/09/30 06:27:34;;;;;;;30.83;17.37;;;;;;;16.66;69.55;99926.53;4881136;29;20049;-90
2023/09/30 06:30:09;;;;;;;39.17;17.25;;;;;;;16.48;69.94;99883.66;4866576;29;20049;-88
2023/09/30 06:32:36;;;;;;;40.80;17.33;;;;;;;16.38;70.08;99848.22;4865323;29;20519;-89
2023/09/30 06:35:21;;;;;;;28.25;17.05;;;;;;;16.81;69.23;99905.78;4851708;29;20567;-90
2023/09/30 06:37:51;;;;;;;30.92;16.42;;;;;;;16.77;68.43;99896.56;4865709;29;20041;-89
2023/09/30 06:40:20;;;;;;;36.63;18.25;;;;;;;16.82;68.61;99890.03;4864426;29;20526;-86
2023/09/30 06:42:57;;;;;;;29.88;17.08;;;;;;;17.09;68.24;99921.75;4879767;29;20104;-87
2023/09/30 06:45:41;;;;;;;33.65;17.83;;;;;;;16.72;69.08;99844.31;4881927;29;20033;-86
2023/09/30 06:48:15;;;;;;;36.45;16.60;;;;;;;17.34;68.64;99906.00;4876590;29;20420;-91
2023/09/30 06:51:10;;;;;;;33.80;17.67;;;;;;;17.33;67.80;99893.34;4873990;29;20097;-86
2023/09/30 06:53:40;;;;;;;37.67;18.25;;;;;;;17.33;67.91;99891.41;4884431;29;20083;-88
2023/09/30 06:56:06;;;;;;;36.63;18.83;;;;;;;17.52;67.54;99912.94;4885210;29;20064;-88
2023/09/30 06:59:12;;;;;;;40.63;16.98;;;;;;;17.64;67.60;99919.63;4889923;29;20052;-89
2023/09/30 07:01:40;;;;;;;34.27;17.87;;;;;;;17.67;66.88;99919.75;4910548;29;20056;-86
2023/09/30 07:04:26;;;;;;;35.70;17.38;;;;;;;17.76;66.59;99923.22;4907022;29;20316;-83
2023/09/30 07:06:54;;;;;;;36.58;19.70;;;;;;;17.34;65.93;99850.75;4921205;29;20514;-84
2023/09/30 07:09:20;;;;;;;39.70;20.43;;;;;;;17.80;66.52;99907.53;4926714;29;20044;-84
2023/09/30 07:11:46;;;;;;;70.17;23.03;;;;;;;17.89;66.48;99904.69;4890577;29;20047;-84
2023/09/30 07:14:12;;;;;;;46.00;20.40;;;;;;;17.92;65.77;99903.97;4919673;29;20146;-83
2023/09/30 07:16:39;;;;;;;34.40;18.98;;;;;;;17.96;65.40;99910.41;4905164;29;20777;-83
2023/09/30 07:19:06;;;;;;;38.15;19.23;;;;;;;18.02;65.51;99913.75;4902335;29;20511;-84
2023/09/30 07:21:32;;;;;;;37.95;19.27;;;;;;;18.07;65.88;99911.53;4854580;29;20081;-85
2023/09/30 07:23:58;;;;;;;36.70;19.87;;;;;;;18.10;65.94;99910.03;4901172;29;20047;-85
2023/09/30 07:26:27;;;;;;;38.17;19.83;;;;;;;18.17;66.04;99904.72;4880304;29;20048;-84
2023/09/30 07:28:58;;;;;;;34.50;18.65;;;;;;;17.96;66.25;99857.84;4888813;29;20348;-86
2023/09/30 07:31:25;;;;;;;44.70;18.55;;;;;;;18.04;66.64;99853.34;4895938;29;20064;-86
2023/09/30 07:33:51;;;;;;;34.58;15.50;;;;;;;18.45;67.28;99884.59;4887411;29;20048;-85
2023/09/30 07:36:20;;;;;;;31.77;17.43;;;;;;;18.95;66.51;99900.66;4885208;29;20044;-85
2023/09/30 07:38:47;;;;;;;42.17;18.27;;;;;;;18.79;63.94;99863.81;4872848;29;20116;-85
2023/09/30 07:41:17;;;;;;;36.78;17.90;;;;;;;19.15;64.35;99895.22;4890022;29;20044;-85
2023/09/30 07:43:43;;;;;;;33.50;17.75;;;;;;;19.12;64.08;99879.31;4883130;29;20499;-87
2023/09/30 07:46:09;;;;;;;32.40;18.63;;;;;;;19.01;62.89;99874.28;4895835;29;20146;-85
2023/09/30 07:48:35;;;;;;;51.20;18.67;;;;;;;19.19;63.69;99858.09;4893639;29;20040;-85
2023/09/30 07:51:02;;;;;;;31.95;16.15;;;;;;;19.70;63.45;99896.19;4860850;29;20079;-84
2023/09/30 07:53:28;;;;;;;47.40;17.83;;;;;;;19.59;61.61;99882.06;4898925;29;20044;-84
2023/09/30 07:55:56;;;;;;;41.88;18.63;;;;;;;19.64;61.91;99889.34;4867990;29;20099;-83
2023/09/30 07:58:22;;;;;;;31.60;18.15;;;;;;;19.32;62.17;99838.63;4882710;29;20127;-84
2023/09/30 08:00:51;;;;;;;43.40;19.13;;;;;;;19.76;61.62;99888.41;4900218;29;20112;-85
2023/09/30 08:03:24;;;;;;;56.17;16.92;;;;;;;19.70;62.06;99860.97;4910405;29;20440;-87
2023/09/30 08:05:50;;;;;;;30.35;16.85;;;;;;;19.80;60.23;99872.66;4902547;29;20060;-84
2023/09/30 08:08:16;;;;;;;32.67;16.33;;;;;;;19.59;59.98;99832.13;4920326;29;20345;-86
2023/09/30 08:10:43;;;;;;;36.47;16.05;;;;;;;19.96;60.59;99854.00;4885496;29;20818;-84
2023/09/30 08:13:10;;;;;;;42.50;13.88;;;;;;;19.93;60.60;99816.69;4902804;29;20044;-85
2023/09/30 08:15:36;;;;;;;33.20;13.77;;;;;;;20.00;57.64;99831.88;4917365;29;20055;-84
2023/09/30 08:18:06;;;;;;;25.92;12.98;;;;;;;20.25;59.17;99844.31;4937840;29;20291;-87
2023/09/30 08:20:32;;;;;;;29.58;14.40;;;;;;;20.52;58.61;99864.72;4919453;29;20071;-86
2023/09/30 08:22:58;;;;;;;30.85;13.80;;;;;;;20.61;57.09;99845.84;4915860;29;20573;-85
2023/09/30 08:25:26;;;;;;;39.10;12.88;;;;;;;20.77;55.39;99861.63;4898513;29;20044;-84
2023/09/30 08:27:53;;;;;;;31.85;12.68;;;;;;;20.82;54.86;99862.09;4879438;29;20044;-84
2023/09/30 08:30:20;;;;;;;34.17;12.13;;;;;;;20.83;55.06;99863.75;4924187;29;20048;-85
2023/09/30 08:32:46;;;;;;;29.75;13.60;;;;;;;20.87;54.58;99866.59;4903691;29;20119;-84
2023/09/30 08:35:15;;;;;;;28.73;12.60;;;;;;;20.86;55.31;99851.88;4890256;29;20044;-85
2023/09/30 08:37:41;;;;;;;24.35;10.93;;;;;;;20.80;53.58;99847.00;4918274;29;20039;-88
2023/09/30 08:40:09;;;;;;;22.80;11.75;;;;;;;20.62;54.41;99813.31;4850907;29;20052;-84
2023/09/30 08:42:38;;;;;;;32.13;12.45;;;;;;;20.88;55.38;99845.94;4899752;29;20047;-83
2023/09/30 08:45:07;;;;;;;27.23;14.38;;;;;;;21.12;53.56;99844.78;4918999;29;20422;-84
2023/09/30 08:47:36;;;;;;;21.27;13.68;;;;;;;21.14;52.81;99842.44;4888803;29;20545;-82
2023/09/30 08:50:08;;;;;;;65.50;22.15;;;;;;;21.14;53.44;99836.88;4917365;29;20091;-85
2023/09/30 08:53:07;;;;;;;123.55;17.25;;;;;;;20.78;53.08;99775.09;4916453;29;20063;-84
2023/09/30 08:55:34;;;;;;;27.83;11.82;;;;;;;21.07;52.15;99809.75;4905489;29;20044;-86
2023/09/30 08:58:03;;;;;;;24.58;11.00;;;;;;;21.15;52.04;99802.31;4912701;29;20050;-92
2023/09/30 09:00:31;;;;;;;23.65;12.23;;;;;;;21.37;53.25;99816.63;4903906;29;20048;-85
2023/09/30 09:02:59;;;;;;;33.72;12.65;;;;;;;21.42;51.19;99813.50;4896167;29;20086;-86
2023/09/30 09:05:57;;;;;;;36.40;13.88;;;;;;;21.67;51.26;99825.81;4898599;29;20483;-83
2023/09/30 09:08:29;;;;;;;36.28;16.83;;;;;;;21.27;51.36;99743.75;4907467;29;20491;-84
2023/09/30 09:10:58;;;;;;;32.22;12.00;;;;;;;21.41;49.04;99762.63;4933072;28;20079;-86
2023/09/30 09:13:55;;;;;;;22.45;11.60;;;;;;;21.63;48.92;99790.78;4922531;29;20422;-86
2023/09/30 09:16:28;;;;;;;31.15;17.52;;;;;;;21.86;48.70;99794.28;4887821;29;20047;-88
2023/09/30 09:18:55;;;;;;;39.80;17.30;;;;;;;21.95;47.26;99824.59;4915324;29;20051;-85
2023/09/30 09:21:25;;;;;;;35.83;21.13;;;;;;;21.68;47.40;99785.66;4950332;29;20044;-85
2023/09/30 09:23:54;;;;;;;56.90;26.90;;;;;;;21.30;47.56;99722.72;4930275;29;20441;-84
2023/09/30 09:26:34;;;;;;;32.85;16.10;;;;;;;21.69;46.96;99789.25;4911228;29;20431;-85
2023/09/30 09:29:07;;;;;;;35.00;19.10;;;;;;;21.91;47.41;99810.63;4926769;29;20068;-87
2023/09/30 09:31:35;;;;;;;51.45;25.27;;;;;;;21.96;47.02;99812.31;4935328;29;20137;-84
2023/09/30 09:34:03;;;;;;;36.08;13.77;;;;;;;21.98;46.59;99807.13;4932617;29;20048;-83
2023/09/30 09:36:40;;;;;;;32.65;18.67;;;;;;;21.78;46.81;99778.66;4943525;29;20052;-90
2023/09/30 09:39:06;;;;;;;23.67;12.88;;;;;;;22.05;46.66;99799.69;4953588;29;20099;-86
2023/09/30 09:41:33;;;;;;;59.78;22.75;;;;;;;22.00;46.97;99785.31;4927896;29;20515;-86
2023/09/30 09:44:00;;;;;;;33.10;17.73;;;;;;;22.16;45.58;99801.84;4940199;29;20050;-85
2023/09/30 09:46:28;;;;;;;39.65;10.68;;;;;;;22.16;45.36;99807.41;4942728;29;20075;-88
2023/09/30 09:48:57;;;;;;;27.50;11.48;;;;;;;21.99;44.88;99781.72;4926331;29;20474;-85
2023/09/30 09:51:24;;;;;;;32.55;13.80;;;;;;;22.17;45.70;99803.44;4927361;29;20039;-85
2023/09/30 09:53:51;;;;;;;22.58;10.18;;;;;;;21.85;44.41;99756.47;4929931;29;20106;-87
2023/09/30 09:56:20;;;;;;;26.05;11.32;;;;;;;22.05;44.35;99776.59;4934521;29;20048;-86
2023/09/30 09:58:49;;;;;;;51.45;18.73;;;;;;;22.20;44.46;99795.13;4925120;29;20103;-92
2023/09/30 10:01:17;;;;;;;25.52;10.82;;;;;;;22.21;43.37;99784.78;4901355;29;20040;-84
2023/09/30 10:03:52;;;;;;;21.48;9.93;;;;;;;22.22;43.15;99773.28;4931459;29;20501;-87
2023/09/30 10:06:20;;;;;;;21.70;9.77;;;;;;;22.26;43.17;99787.25;4905392;29;20056;-85
2023/09/30 10:08:51;;;;;;;20.33;10.23;;;;;;;22.04;42.53;99753.53;4927348;29;20048;-85
2023/09/30 10:11:22;;;;;;;39.28;11.75;;;;;;;22.15;42.60;99767.63;4913873;29;20040;-86
2023/09/30 10:14:14;;;;;;;24.58;10.60;;;;;;;22.37;43.39;99784.56;4924967;29;20044;-88
2023/09/30 10:16:47;;;;;;;22.48;9.98;;;;;;;22.20;42.35;99753.34;4882705;29;20047;-85
2023/09/30 10:19:15;;;;;;;24.77;11.07;;;;;;;22.13;43.04;99714.25;4924942;29;20044;-88
2023/09/30 10:22:22;;;;;;;30.00;10.52;;;;;;;22.57;42.85;99783.19;4927664;29;20076;-85
2023/09/30 10:25:29;;;;;;;19.23;11.32;;;;;;;22.26;43.07;99715.63;4916266;29;20047;-85
2023/09/30 10:28:05;;;;;;;26.23;11.30;;;;;;;22.39;43.04;99713.38;4913735;29;20091;-86
2023/09/30 10:30:32;;;;;;;26.60;11.40;;;;;;;22.55;42.63;99738.22;4928374;29;20044;-89
2023/09/30 10:33:01;;;;;;;23.90;10.85;;;;;;;22.75;42.20;99772.22;4928867;29;20048;-89
2023/09/30 10:35:37;;;;;;;;;;;;;;;;;;;;;
2023/09/30 10:38:55;;;;;;;23.83;10.95;;;;;;;22.70;43.03;99756.66;4931038;29;20091;-87
2023/09/30 10:41:45;;;;;;;21.13;9.90;;;;;;;22.79;43.10;99775.84;4926332;29;20047;-87
2023/09/30 10:44:29;;;;;;;17.48;9.93;;;;;;;22.81;42.46;99767.09;4928550;29;20043;-86
2023/09/30 10:46:58;;;;;;;22.95;11.18;;;;;;;22.67;42.53;99737.91;4912553;29;20044;-89
2023/09/30 10:49:23;;;;;;;25.90;10.98;;;;;;;22.96;43.05;99763.28;4889475;29;20031;-88
2023/09/30 10:51:56;;;;;;;28.00;10.57;;;;;;;22.98;42.17;99753.34;4873284;29;20433;-86
2023/09/30 10:54:23;;;;;;;23.23;14.63;;;;;;;22.96;42.36;99752.91;4922952;29;20036;-85
2023/09/30 10:56:49;;;;;;;29.73;13.80;;;;;;;22.61;42.61;99700.41;4923524;29;20048;-89
2023/09/30 10:59:34;;;;;;;23.15;11.98;;;;;;;22.64;42.99;99737.88;4909125;29;20415;-88
2023/09/30 11:02:02;;;;;;;30.50;12.52;;;;;;;22.64;43.59;99737.88;4927483;29;20537;-90
2023/09/30 11:04:30;;;;;;;29.33;11.93;;;;;;;22.57;43.19;99741.38;4908296;29;20036;-91
2023/09/30 11:07:02;;;;;;;28.63;13.07;;;;;;;22.48;43.93;99721.41;4898812;29;20068;-85
2023/09/30 11:09:28;;;;;;;;;;;;;;;22.59;42.78;99739.03;4939221;29;20795;-85
2023/09/30 11:11:56;;;;;;;28.17;10.65;;;;;;;22.56;42.32;99713.94;4937540;29;19926;-85
2023/09/30 11:14:24;;;;;;;22.95;10.15;;;;;;;22.75;41.85;99725.66;4907257;29;20056;-85
2023/09/30 11:16:51;;;;;;;22.15;10.57;;;;;;;22.77;42.13;99713.31;4927692;29;20491;-85
2023/09/30 11:19:20;;;;;;;18.92;10.30;;;;;;;22.95;41.90;99731.00;4903686;29;20043;-86
2023/09/30 11:21:52;;;;;;;18.33;10.32;;;;;;;22.93;41.77;99711.88;4928228;29;20048;-84
2023/09/30 11:24:19;;;;;;;23.67;12.52;;;;;;;23.09;42.06;99725.53;4893315;29;20051;-86
2023/09/30 11:26:46;;;;;;;;;;;;;;;23.14;42.29;99724.34;4950304;29;20518;-84
2023/09/30 11:29:16;;;;;;;27.17;12.55;;;;;;;23.18;42.15;99720.41;4920759;29;19943;-85
2023/09/30 11:32:09;;;;;;;26.67;12.05;;;;;;;23.21;41.07;99716.03;4880496;29;20059;-86
2023/09/30 11:34:42;;;;;;;30.48;13.20;;;;;;;23.13;42.32;99690.09;4943120;29;20056;-89
2023/09/30 11:37:10;;;;;;;32.15;12.20;;;;;;;23.20;41.35;99686.53;4909346;29;20075;-84
2023/09/30 11:40:14;;;;;;;28.25;10.55;;;;;;;23.51;41.39;99709.44;4930014;29;20036;-87
2023/09/30 11:42:41;;;;;;;32.13;11.55;;;;;;;23.40;40.87;99687.06;4894287;29;20051;-90
2023/09/30 11:45:24;;;;;;;23.85;11.10;;;;;;;23.48;40.38;99718.59;4933141;29;20036;-86
2023/09/30 11:47:53;;;;;;;19.30;10.35;;;;;;;23.22;40.33;99678.59;4898622;29;20044;-90
2023/09/30 11:50:21;;;;;;;27.15;12.98;;;;;;;23.24;40.93;99667.03;4926433;29;20040;-89
2023/09/30 11:53:20;;;;;;;30.92;13.75;;;;;;;23.59;41.78;99700.72;4890713;29;20112;-86
2023/09/30 11:55:47;;;;;;;27.55;12.05;;;;;;;23.43;41.47;99673.13;4920556;29;20044;-86
2023/09/30 11:58:18;;;;;;;21.02;11.68;;;;;;;23.83;41.85;99692.84;4921019;29;20052;-87
2023/09/30 12:01:22;;;;;;;30.60;12.70;;;;;;;23.43;42.14;99614.53;4905580;29;20048;-89
2023/09/30 12:07:26;;;;;;;63.17;13.52;;;;;;;23.83;39.80;99670.53;4827004;29;20083;-86
2023/09/30 12:09:52;;;;;;;30.15;13.98;;;;;;;23.85;39.16;99696.88;4831479;29;20054;-86
2023/09/30 12:12:18;;;;;;;34.35;12.77;;;;;;;23.94;40.43;99687.31;4849717;29;20065;-89
2023/09/30 12:14:44;;;;;;;17.83;11.95;;;;;;;23.99;40.86;99689.72;4867588;29;20085;-89
2023/09/30 12:17:21;;;;;;;34.50;14.00;;;;;;;23.78;39.42;99670.94;4864577;29;20144;-86
2023/09/30 12:19:50;;;;;;;25.52;11.48;;;;;;;23.70;39.96;99663.69;4853083;29;20109;-88
2023/09/30 12:22:17;;;;;;;34.08;12.13;;;;;;;23.76;40.06;99684.47;4854260;29;20046;-84